sensor_id;sensor_type;location;lat;lon;timestamp;P1;durP1;ratioP1;P2;durP2;ratioP2
41077;SDS011;26823;42.662;23.352;2023-07-29T00:01:11;6.72;;;3.65;;
41077;SDS011;26823;42.662;23.352;2023-07-29T00:03:36;4.38;;;3.28;;
41077;SDS011;26823;42.662;23.352;2023-07-29T00:06:02;5.18;;;3.05;;
41077;SDS011;26823;42.662;23.352;2023-07-29T00:08:27;3.75;;;3.40;;
41077;SDS011;26823;42.662;23.352;2023-07-29T00:10:53;3.88;;;2.90;;
41077;SDS011;26823;42.662;23.352;2023-07-29T00:13:18;6.97;;;3.35;;
41077;SDS011;26823;42.662;23.352;2023-07-29T00:15:43;3.45;;;2.92;;
41077;SDS011;26823;42.662;23.352;2023-07-29T00:18:09;3.92;;;2.83;;
41077;SDS011;26823;42.662;23.352;2023-07-29T00:20:34;3.53;;;2.70;;
41077;SDS011;26823;42.662;23.352;2023-07-29T00:22:59;3.92;;;2.70;;
41077;SDS011;26823;42.662;23.352;2023-07-29T00:25:26;6.25;;;3.13;;
41077;SDS011;26823;42.662;23.352;2023-07-29T00:27:51;6.03;;;3.50;;
41077;SDS011;26823;42.662;23.352;2023-07-29T00:30:19;3.78;;;3.13;;
41077;SDS011;26823;42.662;23.352;2023-07-29T00:32:45;3.42;;;3.08;;
41077;SDS011;26823;42.662;23.352;2023-07-29T00:35:10;4.65;;;3.20;;
41077;SDS011;26823;42.662;23.352;2023-07-29T00:37:35;3.83;;;3.17;;
41077;SDS011;26823;42.662;23.352;2023-07-29T00:40:02;6.10;;;2.85;;
41077;SDS011;26823;42.662;23.352;2023-07-29T00:42:28;2.92;;;2.70;;
41077;SDS011;26823;42.662;23.352;2023-07-29T00:44:54;2.95;;;2.75;;
41077;SDS011;26823;42.662;23.352;2023-07-29T00:47:19;4.15;;;3.30;;
41077;SDS011;26823;42.662;23.352;2023-07-29T00:49:45;6.32;;;4.18;;
41077;SDS011;26823;42.662;23.352;2023-07-29T00:52:11;3.20;;;2.80;;
41077;SDS011;26823;42.662;23.352;2023-07-29T00:54:40;6.45;;;3.03;;
41077;SDS011;26823;42.662;23.352;2023-07-29T00:57:06;4.70;;;3.53;;
41077;SDS011;26823;42.662;23.352;2023-07-29T00:59:34;3.17;;;2.88;;
41077;SDS011;26823;42.662;23.352;2023-07-29T01:02:00;7.18;;;3.05;;
41077;SDS011;26823;42.662;23.352;2023-07-29T01:04:27;4.78;;;3.10;;
41077;SDS011;26823;42.662;23.352;2023-07-29T01:10:37;4.60;;;2.85;;
41077;SDS011;26823;42.662;23.352;2023-07-29T01:13:10;4.55;;;3.40;;
41077;SDS011;26823;42.662;23.352;2023-07-29T01:18:18;3.50;;;3.20;;
41077;SDS011;26823;42.662;23.352;2023-07-29T01:20:47;3.67;;;3.35;;
41077;SDS011;26823;42.662;23.352;2023-07-29T01:23:15;4.05;;;2.90;;
41077;SDS011;26823;42.662;23.352;2023-07-29T01:25:41;5.70;;;3.50;;
41077;SDS011;26823;42.662;23.352;2023-07-29T01:28:06;3.80;;;3.45;;
41077;SDS011;26823;42.662;23.352;2023-07-29T01:30:37;3.50;;;3.20;;
41077;SDS011;26823;42.662;23.352;2023-07-29T01:33:05;5.25;;;3.28;;
41077;SDS011;26823;42.662;23.352;2023-07-29T01:35:36;4.00;;;3.28;;
41077;SDS011;26823;42.662;23.352;2023-07-29T01:38:13;9.90;;;3.78;;
41077;SDS011;26823;42.662;23.352;2023-07-29T01:40:43;3.75;;;3.42;;
41077;SDS011;26823;42.662;23.352;2023-07-29T01:43:10;4.30;;;3.28;;
41077;SDS011;26823;42.662;23.352;2023-07-29T01:45:36;4.65;;;3.10;;
41077;SDS011;26823;42.662;23.352;2023-07-29T01:48:04;4.93;;;3.10;;
41077;SDS011;26823;42.662;23.352;2023-07-29T01:50:30;5.03;;;3.22;;
41077;SDS011;26823;42.662;23.352;2023-07-29T01:52:57;4.22;;;3.30;;
41077;SDS011;26823;42.662;23.352;2023-07-29T01:55:22;4.07;;;3.20;;
41077;SDS011;26823;42.662;23.352;2023-07-29T01:57:48;5.88;;;3.53;;
41077;SDS011;26823;42.662;23.352;2023-07-29T02:00:13;5.68;;;3.67;;
41077;SDS011;26823;42.662;23.352;2023-07-29T02:02:38;5.78;;;3.28;;
41077;SDS011;26823;42.662;23.352;2023-07-29T02:05:04;4.97;;;3.38;;
41077;SDS011;26823;42.662;23.352;2023-07-29T02:07:30;4.53;;;3.33;;
41077;SDS011;26823;42.662;23.352;2023-07-29T02:09:55;4.45;;;3.13;;
41077;SDS011;26823;42.662;23.352;2023-07-29T02:12:20;8.82;;;3.45;;
41077;SDS011;26823;42.662;23.352;2023-07-29T02:14:46;3.92;;;3.53;;
41077;SDS011;26823;42.662;23.352;2023-07-29T02:17:11;3.42;;;3.13;;
41077;SDS011;26823;42.662;23.352;2023-07-29T02:19:36;5.15;;;3.15;;
41077;SDS011;26823;42.662;23.352;2023-07-29T02:22:02;5.95;;;3.90;;
41077;SDS011;26823;42.662;23.352;2023-07-29T02:24:27;4.55;;;3.60;;
41077;SDS011;26823;42.662;23.352;2023-07-29T02:26:53;3.85;;;3.22;;
41077;SDS011;26823;42.662;23.352;2023-07-29T02:29:18;4.13;;;3.35;;
41077;SDS011;26823;42.662;23.352;2023-07-29T02:31:43;4.72;;;3.20;;
41077;SDS011;26823;42.662;23.352;2023-07-29T02:34:09;6.75;;;3.97;;
41077;SDS011;26823;42.662;23.352;2023-07-29T02:36:34;5.07;;;3.75;;
41077;SDS011;26823;42.662;23.352;2023-07-29T02:39:00;5.60;;;4.03;;
41077;SDS011;26823;42.662;23.352;2023-07-29T02:41:25;7.50;;;3.78;;
41077;SDS011;26823;42.662;23.352;2023-07-29T02:43:51;4.35;;;3.60;;
41077;SDS011;26823;42.662;23.352;2023-07-29T02:46:16;3.80;;;3.17;;
41077;SDS011;26823;42.662;23.352;2023-07-29T02:48:43;4.97;;;3.53;;
41077;SDS011;26823;42.662;23.352;2023-07-29T02:51:09;4.47;;;3.55;;
41077;SDS011;26823;42.662;23.352;2023-07-29T02:53:34;4.85;;;3.35;;
41077;SDS011;26823;42.662;23.352;2023-07-29T02:56:02;3.42;;;3.13;;
41077;SDS011;26823;42.662;23.352;2023-07-29T02:58:28;3.67;;;3.30;;
41077;SDS011;26823;42.662;23.352;2023-07-29T03:00:53;4.80;;;3.17;;
41077;SDS011;26823;42.662;23.352;2023-07-29T03:03:19;4.97;;;3.42;;
41077;SDS011;26823;42.662;23.352;2023-07-29T03:05:44;5.55;;;3.75;;
41077;SDS011;26823;42.662;23.352;2023-07-29T03:08:10;8.05;;;3.53;;
41077;SDS011;26823;42.662;23.352;2023-07-29T03:10:35;4.22;;;3.55;;
41077;SDS011;26823;42.662;23.352;2023-07-29T03:13:01;7.47;;;3.67;;
41077;SDS011;26823;42.662;23.352;2023-07-29T03:15:27;7.25;;;3.40;;
41077;SDS011;26823;42.662;23.352;2023-07-29T03:17:52;4.22;;;3.30;;
41077;SDS011;26823;42.662;23.352;2023-07-29T03:20:18;4.70;;;3.55;;
41077;SDS011;26823;42.662;23.352;2023-07-29T03:22:44;3.75;;;3.22;;
41077;SDS011;26823;42.662;23.352;2023-07-29T03:25:10;5.28;;;3.72;;
41077;SDS011;26823;42.662;23.352;2023-07-29T03:27:35;3.33;;;3.03;;
41077;SDS011;26823;42.662;23.352;2023-07-29T03:30:07;6.47;;;3.70;;
41077;SDS011;26823;42.662;23.352;2023-07-29T03:32:33;4.25;;;3.65;;
41077;SDS011;26823;42.662;23.352;2023-07-29T03:34:58;6.22;;;3.58;;
41077;SDS011;26823;42.662;23.352;2023-07-29T03:37:24;4.65;;;4.18;;
41077;SDS011;26823;42.662;23.352;2023-07-29T03:39:49;4.50;;;3.83;;
41077;SDS011;26823;42.662;23.352;2023-07-29T03:42:17;7.63;;;3.90;;
41077;SDS011;26823;42.662;23.352;2023-07-29T03:44:42;4.47;;;3.60;;
41077;SDS011;26823;42.662;23.352;2023-07-29T03:47:07;3.67;;;3.38;;
41077;SDS011;26823;42.662;23.352;2023-07-29T03:49:33;4.88;;;4.38;;
41077;SDS011;26823;42.662;23.352;2023-07-29T03:51:58;6.45;;;3.53;;
41077;SDS011;26823;42.662;23.352;2023-07-29T03:54:23;5.35;;;3.60;;
41077;SDS011;26823;42.662;23.352;2023-07-29T03:56:49;4.55;;;3.72;;
41077;SDS011;26823;42.662;23.352;2023-07-29T03:59:15;6.85;;;4.10;;
41077;SDS011;26823;42.662;23.352;2023-07-29T04:01:41;5.45;;;4.07;;
41077;SDS011;26823;42.662;23.352;2023-07-29T04:04:06;4.40;;;4.00;;
41077;SDS011;26823;42.662;23.352;2023-07-29T04:06:31;8.55;;;4.18;;
41077;SDS011;26823;42.662;23.352;2023-07-29T04:08:57;4.75;;;3.75;;
41077;SDS011;26823;42.662;23.352;2023-07-29T04:11:23;5.05;;;3.42;;
41077;SDS011;26823;42.662;23.352;2023-07-29T04:13:49;4.63;;;3.88;;
41077;SDS011;26823;42.662;23.352;2023-07-29T04:16:14;3.75;;;3.35;;
41077;SDS011;26823;42.662;23.352;2023-07-29T04:18:39;5.53;;;4.15;;
41077;SDS011;26823;42.662;23.352;2023-07-29T04:21:05;5.90;;;3.58;;
41077;SDS011;26823;42.662;23.352;2023-07-29T04:23:30;5.82;;;3.80;;
41077;SDS011;26823;42.662;23.352;2023-07-29T04:25:55;4.15;;;3.75;;
41077;SDS011;26823;42.662;23.352;2023-07-29T04:28:21;4.75;;;3.58;;
41077;SDS011;26823;42.662;23.352;2023-07-29T04:30:46;4.57;;;3.67;;
41077;SDS011;26823;42.662;23.352;2023-07-29T04:33:11;4.30;;;3.90;;
41077;SDS011;26823;42.662;23.352;2023-07-29T04:35:37;4.07;;;3.60;;
41077;SDS011;26823;42.662;23.352;2023-07-29T04:38:03;4.57;;;3.67;;
41077;SDS011;26823;42.662;23.352;2023-07-29T04:40:28;5.68;;;4.00;;
41077;SDS011;26823;42.662;23.352;2023-07-29T04:42:54;6.30;;;3.90;;
41077;SDS011;26823;42.662;23.352;2023-07-29T04:45:19;4.63;;;3.25;;
41077;SDS011;26823;42.662;23.352;2023-07-29T04:47:45;3.40;;;2.88;;
41077;SDS011;26823;42.662;23.352;2023-07-29T04:50:10;3.78;;;3.45;;
41077;SDS011;26823;42.662;23.352;2023-07-29T04:52:36;8.05;;;3.90;;
41077;SDS011;26823;42.662;23.352;2023-07-29T04:55:01;3.25;;;2.90;;
41077;SDS011;26823;42.662;23.352;2023-07-29T04:57:27;4.85;;;3.33;;
41077;SDS011;26823;42.662;23.352;2023-07-29T04:59:52;3.72;;;3.40;;
41077;SDS011;26823;42.662;23.352;2023-07-29T05:02:17;5.68;;;3.72;;
41077;SDS011;26823;42.662;23.352;2023-07-29T05:04:43;5.32;;;3.08;;
41077;SDS011;26823;42.662;23.352;2023-07-29T05:07:08;3.80;;;3.50;;
41077;SDS011;26823;42.662;23.352;2023-07-29T05:09:33;3.63;;;3.33;;
41077;SDS011;26823;42.662;23.352;2023-07-29T05:11:59;5.20;;;4.10;;
41077;SDS011;26823;42.662;23.352;2023-07-29T05:14:25;4.35;;;3.45;;
41077;SDS011;26823;42.662;23.352;2023-07-29T05:16:50;4.63;;;2.88;;
41077;SDS011;26823;42.662;23.352;2023-07-29T05:19:16;5.30;;;3.22;;
41077;SDS011;26823;42.662;23.352;2023-07-29T05:21:41;3.75;;;3.28;;
41077;SDS011;26823;42.662;23.352;2023-07-29T05:24:06;4.28;;;3.20;;
41077;SDS011;26823;42.662;23.352;2023-07-29T05:26:32;4.07;;;3.42;;
41077;SDS011;26823;42.662;23.352;2023-07-29T05:28:57;7.95;;;3.72;;
41077;SDS011;26823;42.662;23.352;2023-07-29T05:31:23;3.22;;;2.92;;
41077;SDS011;26823;42.662;23.352;2023-07-29T05:33:48;4.47;;;3.70;;
41077;SDS011;26823;42.662;23.352;2023-07-29T05:36:14;6.00;;;4.10;;
41077;SDS011;26823;42.662;23.352;2023-07-29T05:38:40;4.43;;;3.05;;
41077;SDS011;26823;42.662;23.352;2023-07-29T05:41:05;3.83;;;3.10;;
41077;SDS011;26823;42.662;23.352;2023-07-29T05:43:31;6.13;;;3.13;;
41077;SDS011;26823;42.662;23.352;2023-07-29T05:45:56;5.07;;;3.17;;
41077;SDS011;26823;42.662;23.352;2023-07-29T05:48:21;6.97;;;3.30;;
41077;SDS011;26823;42.662;23.352;2023-07-29T05:50:47;4.20;;;3.17;;
41077;SDS011;26823;42.662;23.352;2023-07-29T05:53:13;4.68;;;3.13;;
41077;SDS011;26823;42.662;23.352;2023-07-29T05:55:39;3.75;;;3.28;;
41077;SDS011;26823;42.662;23.352;2023-07-29T05:58:04;4.63;;;3.35;;
41077;SDS011;26823;42.662;23.352;2023-07-29T06:00:30;4.60;;;3.95;;
41077;SDS011;26823;42.662;23.352;2023-07-29T06:02:55;5.15;;;4.47;;
41077;SDS011;26823;42.662;23.352;2023-07-29T06:05:21;5.15;;;4.65;;
41077;SDS011;26823;42.662;23.352;2023-07-29T06:07:46;6.53;;;4.93;;
41077;SDS011;26823;42.662;23.352;2023-07-29T06:10:13;5.65;;;3.47;;
41077;SDS011;26823;42.662;23.352;2023-07-29T06:12:42;4.70;;;3.97;;
41077;SDS011;26823;42.662;23.352;2023-07-29T06:15:08;7.32;;;4.05;;
41077;SDS011;26823;42.662;23.352;2023-07-29T06:17:34;6.22;;;4.35;;
41077;SDS011;26823;42.662;23.352;2023-07-29T06:19:59;3.90;;;3.50;;
41077;SDS011;26823;42.662;23.352;2023-07-29T06:22:25;3.55;;;3.25;;
41077;SDS011;26823;42.662;23.352;2023-07-29T06:24:50;3.70;;;3.40;;
41077;SDS011;26823;42.662;23.352;2023-07-29T06:27:15;4.78;;;3.38;;
41077;SDS011;26823;42.662;23.352;2023-07-29T06:29:41;5.03;;;4.47;;
41077;SDS011;26823;42.662;23.352;2023-07-29T06:32:06;4.90;;;4.10;;
41077;SDS011;26823;42.662;23.352;2023-07-29T06:34:32;11.68;;;7.70;;
41077;SDS011;26823;42.662;23.352;2023-07-29T06:36:57;7.20;;;4.45;;
41077;SDS011;26823;42.662;23.352;2023-07-29T06:39:23;6.35;;;4.30;;
41077;SDS011;26823;42.662;23.352;2023-07-29T06:41:48;8.13;;;3.95;;
41077;SDS011;26823;42.662;23.352;2023-07-29T06:44:13;4.95;;;3.97;;
41077;SDS011;26823;42.662;23.352;2023-07-29T06:46:45;6.38;;;3.83;;
41077;SDS011;26823;42.662;23.352;2023-07-29T06:49:11;7.18;;;4.88;;
41077;SDS011;26823;42.662;23.352;2023-07-29T06:51:36;8.60;;;5.03;;
41077;SDS011;26823;42.662;23.352;2023-07-29T06:54:02;4.95;;;4.00;;
41077;SDS011;26823;42.662;23.352;2023-07-29T06:56:28;7.18;;;4.13;;
41077;SDS011;26823;42.662;23.352;2023-07-29T06:58:53;4.25;;;3.80;;
41077;SDS011;26823;42.662;23.352;2023-07-29T07:01:18;6.75;;;4.47;;
41077;SDS011;26823;42.662;23.352;2023-07-29T07:03:44;8.68;;;4.25;;
41077;SDS011;26823;42.662;23.352;2023-07-29T07:06:09;5.82;;;4.05;;
41077;SDS011;26823;42.662;23.352;2023-07-29T07:08:35;5.10;;;4.32;;
41077;SDS011;26823;42.662;23.352;2023-07-29T07:11:00;6.10;;;3.95;;
41077;SDS011;26823;42.662;23.352;2023-07-29T07:13:26;6.05;;;3.80;;
41077;SDS011;26823;42.662;23.352;2023-07-29T07:15:53;11.48;;;4.78;;
41077;SDS011;26823;42.662;23.352;2023-07-29T07:18:20;6.25;;;4.25;;
41077;SDS011;26823;42.662;23.352;2023-07-29T07:20:50;7.47;;;3.90;;
41077;SDS011;26823;42.662;23.352;2023-07-29T07:23:16;6.68;;;3.88;;
41077;SDS011;26823;42.662;23.352;2023-07-29T07:25:42;10.30;;;4.63;;
41077;SDS011;26823;42.662;23.352;2023-07-29T07:28:07;6.18;;;4.28;;
41077;SDS011;26823;42.662;23.352;2023-07-29T07:30:34;11.10;;;4.00;;
41077;SDS011;26823;42.662;23.352;2023-07-29T07:32:59;9.93;;;3.60;;
41077;SDS011;26823;42.662;23.352;2023-07-29T07:35:24;7.18;;;3.40;;
41077;SDS011;26823;42.662;23.352;2023-07-29T07:37:50;4.45;;;3.58;;
41077;SDS011;26823;42.662;23.352;2023-07-29T07:40:15;4.45;;;3.28;;
41077;SDS011;26823;42.662;23.352;2023-07-29T07:42:40;6.85;;;3.30;;
41077;SDS011;26823;42.662;23.352;2023-07-29T07:45:06;6.30;;;3.80;;
41077;SDS011;26823;42.662;23.352;2023-07-29T07:47:31;8.30;;;3.78;;
41077;SDS011;26823;42.662;23.352;2023-07-29T07:49:57;4.90;;;3.58;;
41077;SDS011;26823;42.662;23.352;2023-07-29T07:52:22;7.10;;;4.45;;
41077;SDS011;26823;42.662;23.352;2023-07-29T07:54:51;9.48;;;3.63;;
41077;SDS011;26823;42.662;23.352;2023-07-29T07:57:19;5.70;;;3.90;;
41077;SDS011;26823;42.662;23.352;2023-07-29T07:59:45;5.38;;;3.45;;
41077;SDS011;26823;42.662;23.352;2023-07-29T08:02:10;4.80;;;3.60;;
41077;SDS011;26823;42.662;23.352;2023-07-29T08:04:36;4.88;;;3.45;;
41077;SDS011;26823;42.662;23.352;2023-07-29T08:07:01;6.60;;;3.90;;
41077;SDS011;26823;42.662;23.352;2023-07-29T08:09:27;8.38;;;3.80;;
41077;SDS011;26823;42.662;23.352;2023-07-29T08:11:52;6.15;;;4.18;;
41077;SDS011;26823;42.662;23.352;2023-07-29T08:14:17;7.30;;;3.60;;
41077;SDS011;26823;42.662;23.352;2023-07-29T08:16:43;4.45;;;3.45;;
41077;SDS011;26823;42.662;23.352;2023-07-29T08:19:08;6.97;;;4.18;;
41077;SDS011;26823;42.662;23.352;2023-07-29T08:21:34;6.13;;;3.88;;
41077;SDS011;26823;42.662;23.352;2023-07-29T08:24:00;6.50;;;3.75;;
41077;SDS011;26823;42.662;23.352;2023-07-29T08:26:25;7.13;;;3.65;;
41077;SDS011;26823;42.662;23.352;2023-07-29T08:28:51;8.48;;;3.70;;
41077;SDS011;26823;42.662;23.352;2023-07-29T08:31:16;5.55;;;3.45;;
41077;SDS011;26823;42.662;23.352;2023-07-29T08:33:42;3.85;;;3.40;;
41077;SDS011;26823;42.662;23.352;2023-07-29T08:36:07;5.85;;;3.30;;
41077;SDS011;26823;42.662;23.352;2023-07-29T08:38:33;5.43;;;3.28;;
41077;SDS011;26823;42.662;23.352;2023-07-29T08:43:39;4.63;;;2.80;;
41077;SDS011;26823;42.662;23.352;2023-07-29T08:46:18;3.75;;;2.97;;
41077;SDS011;26823;42.662;23.352;2023-07-29T08:48:44;5.55;;;3.40;;
41077;SDS011;26823;42.662;23.352;2023-07-29T08:51:11;3.47;;;3.10;;
41077;SDS011;26823;42.662;23.352;2023-07-29T08:53:37;3.20;;;2.90;;
41077;SDS011;26823;42.662;23.352;2023-07-29T08:56:03;7.28;;;2.92;;
41077;SDS011;26823;42.662;23.352;2023-07-29T08:58:30;6.60;;;3.03;;
41077;SDS011;26823;42.662;23.352;2023-07-29T09:00:55;2.97;;;2.28;;
41077;SDS011;26823;42.662;23.352;2023-07-29T09:03:21;3.47;;;2.70;;
41077;SDS011;26823;42.662;23.352;2023-07-29T09:05:47;5.00;;;2.63;;
41077;SDS011;26823;42.662;23.352;2023-07-29T09:08:13;3.10;;;2.55;;
41077;SDS011;26823;42.662;23.352;2023-07-29T09:10:39;3.80;;;2.47;;
41077;SDS011;26823;42.662;23.352;2023-07-29T09:13:04;3.25;;;2.55;;
41077;SDS011;26823;42.662;23.352;2023-07-29T09:15:31;3.88;;;2.30;;
41077;SDS011;26823;42.662;23.352;2023-07-29T09:17:59;2.58;;;2.00;;
41077;SDS011;26823;42.662;23.352;2023-07-29T09:22:59;3.45;;;1.50;;
41077;SDS011;26823;42.662;23.352;2023-07-29T09:25:28;3.15;;;2.00;;
41077;SDS011;26823;42.662;23.352;2023-07-29T09:28:00;3.17;;;1.92;;
41077;SDS011;26823;42.662;23.352;2023-07-29T09:30:27;4.05;;;2.10;;
41077;SDS011;26823;42.662;23.352;2023-07-29T09:32:56;2.78;;;1.80;;
41077;SDS011;26823;42.662;23.352;2023-07-29T09:35:22;3.67;;;1.90;;
41077;SDS011;26823;42.662;23.352;2023-07-29T09:37:47;6.38;;;2.05;;
41077;SDS011;26823;42.662;23.352;2023-07-29T09:40:19;2.53;;;1.98;;
41077;SDS011;26823;42.662;23.352;2023-07-29T09:42:48;1.90;;;1.73;;
41077;SDS011;26823;42.662;23.352;2023-07-29T09:45:21;2.35;;;1.63;;
41077;SDS011;26823;42.662;23.352;2023-07-29T09:47:47;2.15;;;1.50;;
41077;SDS011;26823;42.662;23.352;2023-07-29T09:50:13;2.72;;;2.10;;
41077;SDS011;26823;42.662;23.352;2023-07-29T09:52:42;6.05;;;1.95;;
41077;SDS011;26823;42.662;23.352;2023-07-29T09:55:26;3.80;;;2.20;;
41077;SDS011;26823;42.662;23.352;2023-07-29T09:57:53;1.98;;;1.63;;
41077;SDS011;26823;42.662;23.352;2023-07-29T10:00:19;3.72;;;2.10;;
41077;SDS011;26823;42.662;23.352;2023-07-29T10:02:45;1.83;;;1.73;;
41077;SDS011;26823;42.662;23.352;2023-07-29T10:05:11;2.92;;;2.15;;
41077;SDS011;26823;42.662;23.352;2023-07-29T10:07:37;1.85;;;1.55;;
41077;SDS011;26823;42.662;23.352;2023-07-29T10:10:07;5.55;;;1.67;;
41077;SDS011;26823;42.662;23.352;2023-07-29T10:12:33;4.22;;;1.48;;
41077;SDS011;26823;42.662;23.352;2023-07-29T10:15:01;2.03;;;1.50;;
41077;SDS011;26823;42.662;23.352;2023-07-29T10:17:29;3.33;;;1.30;;
41077;SDS011;26823;42.662;23.352;2023-07-29T10:19:56;3.72;;;1.33;;
41077;SDS011;26823;42.662;23.352;2023-07-29T10:22:25;1.65;;;1.48;;
41077;SDS011;26823;42.662;23.352;2023-07-29T10:24:54;6.65;;;1.50;;
41077;SDS011;26823;42.662;23.352;2023-07-29T10:27:24;1.90;;;1.42;;
41077;SDS011;26823;42.662;23.352;2023-07-29T10:29:51;1.30;;;1.20;;
41077;SDS011;26823;42.662;23.352;2023-07-29T10:32:20;3.00;;;2.08;;
41077;SDS011;26823;42.662;23.352;2023-07-29T10:34:51;1.58;;;1.40;;
41077;SDS011;26823;42.662;23.352;2023-07-29T10:37:16;3.42;;;1.10;;
41077;SDS011;26823;42.662;23.352;2023-07-29T10:39:51;1.85;;;1.35;;
41077;SDS011;26823;42.662;23.352;2023-07-29T10:42:18;1.40;;;1.25;;
41077;SDS011;26823;42.662;23.352;2023-07-29T10:44:48;2.00;;;1.20;;
41077;SDS011;26823;42.662;23.352;2023-07-29T10:49:51;3.47;;;2.13;;
41077;SDS011;26823;42.662;23.352;2023-07-29T10:52:29;3.88;;;2.15;;
41077;SDS011;26823;42.662;23.352;2023-07-29T10:54:57;8.18;;;3.13;;
41077;SDS011;26823;42.662;23.352;2023-07-29T10:57:34;6.22;;;2.55;;
41077;SDS011;26823;42.662;23.352;2023-07-29T11:00:04;2.80;;;1.60;;
41077;SDS011;26823;42.662;23.352;2023-07-29T11:02:31;8.02;;;2.25;;
41077;SDS011;26823;42.662;23.352;2023-07-29T11:04:59;6.88;;;1.98;;
41077;SDS011;26823;42.662;23.352;2023-07-29T11:07:30;5.22;;;1.92;;
41077;SDS011;26823;42.662;23.352;2023-07-29T11:09:59;6.05;;;1.98;;
41077;SDS011;26823;42.662;23.352;2023-07-29T11:17:46;3.60;;;1.25;;
41077;SDS011;26823;42.662;23.352;2023-07-29T11:20:15;1.33;;;1.23;;
41077;SDS011;26823;42.662;23.352;2023-07-29T11:22:41;3.53;;;1.05;;
41077;SDS011;26823;42.662;23.352;2023-07-29T11:25:08;1.20;;;1.10;;
41077;SDS011;26823;42.662;23.352;2023-07-29T11:27:35;1.02;;;0.95;;
41077;SDS011;26823;42.662;23.352;2023-07-29T11:30:02;2.05;;;1.20;;
41077;SDS011;26823;42.662;23.352;2023-07-29T11:32:35;3.97;;;1.48;;
41077;SDS011;26823;42.662;23.352;2023-07-29T11:35:05;3.72;;;1.73;;
41077;SDS011;26823;42.662;23.352;2023-07-29T11:37:33;2.42;;;0.90;;
41077;SDS011;26823;42.662;23.352;2023-07-29T11:39:59;1.10;;;1.00;;
41077;SDS011;26823;42.662;23.352;2023-07-29T11:42:25;1.27;;;1.17;;
41077;SDS011;26823;42.662;23.352;2023-07-29T11:44:51;2.72;;;1.48;;
41077;SDS011;26823;42.662;23.352;2023-07-29T11:47:17;1.45;;;1.10;;
41077;SDS011;26823;42.662;23.352;2023-07-29T11:49:42;2.90;;;1.10;;
41077;SDS011;26823;42.662;23.352;2023-07-29T11:52:08;1.63;;;1.20;;
41077;SDS011;26823;42.662;23.352;2023-07-29T11:54:38;1.20;;;1.10;;
41077;SDS011;26823;42.662;23.352;2023-07-29T11:57:07;1.65;;;0.93;;
41077;SDS011;26823;42.662;23.352;2023-07-29T11:59:34;2.65;;;1.00;;
41077;SDS011;26823;42.662;23.352;2023-07-29T12:02:00;0.98;;;0.90;;
41077;SDS011;26823;42.662;23.352;2023-07-29T12:04:27;1.20;;;1.10;;
41077;SDS011;26823;42.662;23.352;2023-07-29T12:06:54;1.00;;;1.00;;
41077;SDS011;26823;42.662;23.352;2023-07-29T12:09:20;2.83;;;1.30;;
41077;SDS011;26823;42.662;23.352;2023-07-29T12:11:46;1.50;;;0.93;;
41077;SDS011;26823;42.662;23.352;2023-07-29T12:14:11;1.80;;;1.00;;
41077;SDS011;26823;42.662;23.352;2023-07-29T12:16:41;0.93;;;0.65;;
41077;SDS011;26823;42.662;23.352;2023-07-29T12:19:07;1.70;;;1.10;;
41077;SDS011;26823;42.662;23.352;2023-07-29T12:21:32;1.60;;;1.08;;
41077;SDS011;26823;42.662;23.352;2023-07-29T12:23:58;2.22;;;1.00;;
41077;SDS011;26823;42.662;23.352;2023-07-29T12:26:27;2.17;;;0.90;;
41077;SDS011;26823;42.662;23.352;2023-07-29T12:28:53;0.90;;;0.90;;
41077;SDS011;26823;42.662;23.352;2023-07-29T12:31:18;1.00;;;0.90;;
41077;SDS011;26823;42.662;23.352;2023-07-29T12:33:44;1.42;;;1.08;;
41077;SDS011;26823;42.662;23.352;2023-07-29T12:36:09;2.58;;;1.13;;
41077;SDS011;26823;42.662;23.352;2023-07-29T12:38:35;2.22;;;1.20;;
41077;SDS011;26823;42.662;23.352;2023-07-29T12:41:01;1.30;;;1.20;;
41077;SDS011;26823;42.662;23.352;2023-07-29T12:43:28;2.00;;;1.30;;
41077;SDS011;26823;42.662;23.352;2023-07-29T12:45:53;1.55;;;1.00;;
41077;SDS011;26823;42.662;23.352;2023-07-29T12:48:19;1.00;;;1.00;;
41077;SDS011;26823;42.662;23.352;2023-07-29T12:50:45;1.40;;;1.30;;
41077;SDS011;26823;42.662;23.352;2023-07-29T12:53:11;1.48;;;1.38;;
41077;SDS011;26823;42.662;23.352;2023-07-29T12:55:36;3.67;;;1.20;;
41077;SDS011;26823;42.662;23.352;2023-07-29T12:58:02;2.60;;;1.23;;
41077;SDS011;26823;42.662;23.352;2023-07-29T13:00:27;1.40;;;1.30;;
41077;SDS011;26823;42.662;23.352;2023-07-29T13:02:53;1.60;;;1.30;;
41077;SDS011;26823;42.662;23.352;2023-07-29T13:05:19;2.60;;;1.02;;
41077;SDS011;26823;42.662;23.352;2023-07-29T13:07:45;1.40;;;1.13;;
41077;SDS011;26823;42.662;23.352;2023-07-29T13:10:10;1.52;;;1.15;;
41077;SDS011;26823;42.662;23.352;2023-07-29T13:12:37;1.15;;;1.00;;
41077;SDS011;26823;42.662;23.352;2023-07-29T13:15:02;1.95;;;1.70;;
41077;SDS011;26823;42.662;23.352;2023-07-29T13:17:28;2.00;;;1.10;;
41077;SDS011;26823;42.662;23.352;2023-07-29T13:19:53;1.58;;;1.27;;
41077;SDS011;26823;42.662;23.352;2023-07-29T13:22:19;1.95;;;1.10;;
41077;SDS011;26823;42.662;23.352;2023-07-29T13:24:45;1.80;;;1.10;;
41077;SDS011;26823;42.662;23.352;2023-07-29T13:27:11;2.13;;;1.55;;
41077;SDS011;26823;42.662;23.352;2023-07-29T13:29:36;1.48;;;1.30;;
41077;SDS011;26823;42.662;23.352;2023-07-29T13:32:02;1.70;;;1.30;;
41077;SDS011;26823;42.662;23.352;2023-07-29T13:34:27;1.38;;;1.27;;
41077;SDS011;26823;42.662;23.352;2023-07-29T13:36:53;1.50;;;1.40;;
41077;SDS011;26823;42.662;23.352;2023-07-29T13:39:18;1.35;;;1.08;;
41077;SDS011;26823;42.662;23.352;2023-07-29T13:41:44;1.92;;;1.13;;
41077;SDS011;26823;42.662;23.352;2023-07-29T13:44:09;2.67;;;1.20;;
41077;SDS011;26823;42.662;23.352;2023-07-29T13:46:34;2.85;;;1.02;;
41077;SDS011;26823;42.662;23.352;2023-07-29T13:49:00;1.30;;;1.20;;
41077;SDS011;26823;42.662;23.352;2023-07-29T13:51:26;2.30;;;1.10;;
41077;SDS011;26823;42.662;23.352;2023-07-29T13:53:59;1.83;;;1.33;;
41077;SDS011;26823;42.662;23.352;2023-07-29T13:56:31;1.40;;;1.30;;
41077;SDS011;26823;42.662;23.352;2023-07-29T13:59:03;2.15;;;1.02;;
41077;SDS011;26823;42.662;23.352;2023-07-29T14:01:28;1.85;;;1.33;;
41077;SDS011;26823;42.662;23.352;2023-07-29T14:03:54;1.83;;;1.50;;
41077;SDS011;26823;42.662;23.352;2023-07-29T14:06:19;1.40;;;1.30;;
41077;SDS011;26823;42.662;23.352;2023-07-29T14:08:44;3.20;;;1.25;;
41077;SDS011;26823;42.662;23.352;2023-07-29T14:11:10;2.30;;;1.50;;
41077;SDS011;26823;42.662;23.352;2023-07-29T14:13:35;3.28;;;1.40;;
41077;SDS011;26823;42.662;23.352;2023-07-29T14:16:01;1.75;;;1.42;;
41077;SDS011;26823;42.662;23.352;2023-07-29T14:18:30;4.15;;;1.33;;
41077;SDS011;26823;42.662;23.352;2023-07-29T14:20:55;3.45;;;1.35;;
41077;SDS011;26823;42.662;23.352;2023-07-29T14:23:21;1.75;;;1.17;;
41077;SDS011;26823;42.662;23.352;2023-07-29T14:25:46;5.38;;;2.10;;
41077;SDS011;26823;42.662;23.352;2023-07-29T14:28:12;1.75;;;1.58;;
41077;SDS011;26823;42.662;23.352;2023-07-29T14:30:39;2.85;;;1.10;;
41077;SDS011;26823;42.662;23.352;2023-07-29T14:33:06;1.35;;;1.23;;
41077;SDS011;26823;42.662;23.352;2023-07-29T14:35:31;2.08;;;1.17;;
41077;SDS011;26823;42.662;23.352;2023-07-29T14:37:58;1.85;;;1.23;;
41077;SDS011;26823;42.662;23.352;2023-07-29T14:40:23;4.68;;;1.38;;
41077;SDS011;26823;42.662;23.352;2023-07-29T14:42:49;3.92;;;1.30;;
41077;SDS011;26823;42.662;23.352;2023-07-29T14:45:14;2.80;;;1.10;;
41077;SDS011;26823;42.662;23.352;2023-07-29T14:47:41;1.85;;;1.65;;